sensor_id;sensor_type;location;lat;lon;timestamp;temperature;humidity
21123;DHT22;10719;48.130;11.630;2022-11-27T00:00:58;0.00;99.90
21123;DHT22;10719;48.130;11.630;2022-11-27T00:03:24;0.00;99.90
21123;DHT22;10719;48.130;11.630;2022-11-27T00:05:52;0.10;99.90
21123;DHT22;10719;48.130;11.630;2022-11-27T00:08:18;0.00;99.90
21123;DHT22;10719;48.130;11.630;2022-11-27T00:10:43;0.10;99.90
21123;DHT22;10719;48.130;11.630;2022-11-27T00:13:09;0.00;99.90
21123;DHT22;10719;48.130;11.630;2022-11-27T00:15:35;0.00;99.90
21123;DHT22;10719;48.130;11.630;2022-11-27T00:18:00;0.10;99.90
21123;DHT22;10719;48.130;11.630;2022-11-27T00:20:26;0.00;99.90
21123;DHT22;10719;48.130;11.630;2022-11-27T00:22:51;0.00;99.90
21123;DHT22;10719;48.130;11.630;2022-11-27T00:25:17;-0.10;99.90
21123;DHT22;10719;48.130;11.630;2022-11-27T00:27:42;-0.10;99.90
21123;DHT22;10719;48.130;11.630;2022-11-27T00:30:08;-0.10;99.90
21123;DHT22;10719;48.130;11.630;2022-11-27T00:32:35;0.00;99.90
21123;DHT22;10719;48.130;11.630;2022-11-27T00:35:01;0.00;99.90
21123;DHT22;10719;48.130;11.630;2022-11-27T00:37:26;0.00;99.90
21123;DHT22;10719;48.130;11.630;2022-11-27T00:39:52;-0.10;99.90
21123;DHT22;10719;48.130;11.630;2022-11-27T00:42:17;-0.10;99.90
21123;DHT22;10719;48.130;11.630;2022-11-27T00:44:43;-0.10;99.90
21123;DHT22;10719;48.130;11.630;2022-11-27T00:47:08;-0.10;99.90
21123;DHT22;10719;48.130;11.630;2022-11-27T00:49:34;-0.10;99.90
21123;DHT22;10719;48.130;11.630;2022-11-27T00:52:00;-0.10;99.90
21123;DHT22;10719;48.130;11.630;2022-11-27T00:54:25;-0.20;99.90
21123;DHT22;10719;48.130;11.630;2022-11-27T00:56:51;-0.20;99.90
21123;DHT22;10719;48.130;11.630;2022-11-27T00:59:16;-0.20;99.90
21123;DHT22;10719;48.130;11.630;2022-11-27T01:01:42;-0.20;99.90
21123;DHT22;10719;48.130;11.630;2022-11-27T01:04:12;-0.20;99.90
21123;DHT22;10719;48.130;11.630;2022-11-27T01:06:38;-0.20;99.90
21123;DHT22;10719;48.130;11.630;2022-11-27T01:09:04;-0.30;99.90
21123;DHT22;10719;48.130;11.630;2022-11-27T01:11:32;-0.30;99.90
21123;DHT22;10719;48.130;11.630;2022-11-27T01:14:00;-0.30;99.90
21123;DHT22;10719;48.130;11.630;2022-11-27T01:16:27;-0.30;99.90
21123;DHT22;10719;48.130;11.630;2022-11-27T01:18:55;-0.40;99.90
21123;DHT22;10719;48.130;11.630;2022-11-27T01:21:22;-0.40;99.90
21123;DHT22;10719;48.130;11.630;2022-11-27T01:23:49;-0.40;99.90
21123;DHT22;10719;48.130;11.630;2022-11-27T01:26:15;-0.40;99.90
21123;DHT22;10719;48.130;11.630;2022-11-27T01:28:42;-0.40;99.90
21123;DHT22;10719;48.130;11.630;2022-11-27T01:31:23;-0.40;99.90
21123;DHT22;10719;48.130;11.630;2022-11-27T01:33:58;-0.40;99.90
21123;DHT22;10719;48.130;11.630;2022-11-27T01:36:24;-0.50;99.90
21123;DHT22;10719;48.130;11.630;2022-11-27T01:38:50;-0.50;99.90
21123;DHT22;10719;48.130;11.630;2022-11-27T01:41:18;-0.50;99.90
21123;DHT22;10719;48.130;11.630;2022-11-27T01:44:02;-0.50;99.90
21123;DHT22;10719;48.130;11.630;2022-11-27T01:46:38;-0.60;99.90
21123;DHT22;10719;48.130;11.630;2022-11-27T01:51:44;-0.60;99.90
21123;DHT22;10719;48.130;11.630;2022-11-27T01:54:11;-0.60;99.90
21123;DHT22;10719;48.130;11.630;2022-11-27T01:56:41;-0.60;99.90
21123;DHT22;10719;48.130;11.630;2022-11-27T01:59:07;-0.60;99.90
21123;DHT22;10719;48.130;11.630;2022-11-27T02:01:33;-0.60;99.90
21123;DHT22;10719;48.130;11.630;2022-11-27T02:04:00;-0.60;99.90
21123;DHT22;10719;48.130;11.630;2022-11-27T02:06:26;-0.60;99.90
21123;DHT22;10719;48.130;11.630;2022-11-27T02:08:52;-0.60;99.90
21123;DHT22;10719;48.130;11.630;2022-11-27T02:14:17;-0.60;99.90
21123;DHT22;10719;48.130;11.630;2022-11-27T02:16:57;-0.70;99.90
21123;DHT22;10719;48.130;11.630;2022-11-27T02:24:57;-0.70;99.90
21123;DHT22;10719;48.130;11.630;2022-11-27T02:27:32;-0.70;99.90
21123;DHT22;10719;48.130;11.630;2022-11-27T02:30:02;-0.70;99.90
21123;DHT22;10719;48.130;11.630;2022-11-27T02:32:37;-0.70;99.90
21123;DHT22;10719;48.130;11.630;2022-11-27T02:35:11;-0.80;99.90
21123;DHT22;10719;48.130;11.630;2022-11-27T02:37:56;-0.70;99.90
21123;DHT22;10719;48.130;11.630;2022-11-27T02:40:50;-0.70;99.90
21123;DHT22;10719;48.130;11.630;2022-11-27T02:45:50;-0.70;99.90
21123;DHT22;10719;48.130;11.630;2022-11-27T02:48:19;-0.80;99.90
21123;DHT22;10719;48.130;11.630;2022-11-27T02:50:45;-0.80;99.90
21123;DHT22;10719;48.130;11.630;2022-11-27T02:53:37;-0.80;99.90
21123;DHT22;10719;48.130;11.630;2022-11-27T02:56:07;-0.80;99.90
21123;DHT22;10719;48.130;11.630;2022-11-27T02:58:35;-0.80;99.90
21123;DHT22;10719;48.130;11.630;2022-11-27T03:01:03;-0.80;99.90
21123;DHT22;10719;48.130;11.630;2022-11-27T03:03:36;-0.80;99.90
21123;DHT22;10719;48.130;11.630;2022-11-27T03:06:08;-0.80;99.90
21123;DHT22;10719;48.130;11.630;2022-11-27T03:08:43;-0.80;99.90
21123;DHT22;10719;48.130;11.630;2022-11-27T03:11:12;-0.80;99.90
21123;DHT22;10719;48.130;11.630;2022-11-27T03:13:45;-0.80;99.90
21123;DHT22;10719;48.130;11.630;2022-11-27T03:21:39;-0.80;99.90
21123;DHT22;10719;48.130;11.630;2022-11-27T03:24:09;-0.80;99.90
21123;DHT22;10719;48.130;11.630;2022-11-27T03:26:36;-0.80;99.90
21123;DHT22;10719;48.130;11.630;2022-11-27T03:29:05;-0.90;99.90
21123;DHT22;10719;48.130;11.630;2022-11-27T03:31:32;-0.90;99.90
21123;DHT22;10719;48.130;11.630;2022-11-27T03:33:57;-1.00;99.90
21123;DHT22;10719;48.130;11.630;2022-11-27T03:36:23;-1.00;99.90
21123;DHT22;10719;48.130;11.630;2022-11-27T03:38:50;-1.00;99.90
21123;DHT22;10719;48.130;11.630;2022-11-27T03:44:03;-1.00;99.90
21123;DHT22;10719;48.130;11.630;2022-11-27T03:57:25;-1.10;99.90
21123;DHT22;10719;48.130;11.630;2022-11-27T03:59:55;-1.10;99.90
21123;DHT22;10719;48.130;11.630;2022-11-27T04:02:29;-1.20;99.90
21123;DHT22;10719;48.130;11.630;2022-11-27T04:04:58;-1.10;99.90
21123;DHT22;10719;48.130;11.630;2022-11-27T04:07:24;-1.20;99.90
21123;DHT22;10719;48.130;11.630;2022-11-27T04:09:49;-1.20;99.90
21123;DHT22;10719;48.130;11.630;2022-11-27T04:12:15;-1.10;99.90
21123;DHT22;10719;48.130;11.630;2022-11-27T04:14:40;-1.10;99.90
21123;DHT22;10719;48.130;11.630;2022-11-27T04:17:07;-1.20;99.90
21123;DHT22;10719;48.130;11.630;2022-11-27T04:19:32;-1.20;99.90
21123;DHT22;10719;48.130;11.630;2022-11-27T04:21:58;-1.10;99.90
21123;DHT22;10719;48.130;11.630;2022-11-27T04:24:23;-1.10;99.90
21123;DHT22;10719;48.130;11.630;2022-11-27T04:26:49;-1.10;99.90
21123;DHT22;10719;48.130;11.630;2022-11-27T04:29:14;-1.10;99.90
21123;DHT22;10719;48.130;11.630;2022-11-27T04:31:40;-1.00;99.90
21123;DHT22;10719;48.130;11.630;2022-11-27T04:34:06;-1.00;99.90
21123;DHT22;10719;48.130;11.630;2022-11-27T04:36:31;-1.00;99.90
21123;DHT22;10719;48.130;11.630;2022-11-27T04:38:57;-1.00;99.90
21123;DHT22;10719;48.130;11.630;2022-11-27T04:41:22;-1.00;99.90
21123;DHT22;10719;48.130;11.630;2022-11-27T04:43:48;-1.10;99.90
21123;DHT22;10719;48.130;11.630;2022-11-27T04:46:13;-1.10;99.90
21123;DHT22;10719;48.130;11.630;2022-11-27T04:48:39;-1.10;99.90
21123;DHT22;10719;48.130;11.630;2022-11-27T04:51:04;-1.10;99.90
21123;DHT22;10719;48.130;11.630;2022-11-27T04:53:30;-1.10;99.90
21123;DHT22;10719;48.130;11.630;2022-11-27T04:55:55;-1.20;99.90
21123;DHT22;10719;48.130;11.630;2022-11-27T04:58:21;-1.10;99.90
21123;DHT22;10719;48.130;11.630;2022-11-27T05:00:47;-1.20;99.90
21123;DHT22;10719;48.130;11.630;2022-11-27T05:03:12;-1.20;99.90
21123;DHT22;10719;48.130;11.630;2022-11-27T05:05:38;-1.20;99.90
21123;DHT22;10719;48.130;11.630;2022-11-27T05:08:04;-1.20;99.90
21123;DHT22;10719;48.130;11.630;2022-11-27T05:10:29;-1.10;99.90
21123;DHT22;10719;48.130;11.630;2022-11-27T05:12:55;-1.10;99.90
21123;DHT22;10719;48.130;11.630;2022-11-27T05:15:20;-1.10;99.90
21123;DHT22;10719;48.130;11.630;2022-11-27T05:17:46;-1.10;99.90
21123;DHT22;10719;48.130;11.630;2022-11-27T05:20:11;-1.10;99.90
21123;DHT22;10719;48.130;11.630;2022-11-27T05:22:37;-1.10;99.90
21123;DHT22;10719;48.130;11.630;2022-11-27T05:25:03;-1.20;99.90
21123;DHT22;10719;48.130;11.630;2022-11-27T05:27:28;-1.10;99.90
21123;DHT22;10719;48.130;11.630;2022-11-27T05:29:54;-1.20;99.90
21123;DHT22;10719;48.130;11.630;2022-11-27T05:32:19;-1.20;99.90
21123;DHT22;10719;48.130;11.630;2022-11-27T05:34:45;-1.20;99.90
21123;DHT22;10719;48.130;11.630;2022-11-27T05:37:12;-1.20;99.90
21123;DHT22;10719;48.130;11.630;2022-11-27T05:39:39;-1.20;99.90
21123;DHT22;10719;48.130;11.630;2022-11-27T05:42:04;-1.30;99.90
21123;DHT22;10719;48.130;11.630;2022-11-27T05:44:30;-1.30;99.90
21123;DHT22;10719;48.130;11.630;2022-11-27T05:46:55;-1.30;99.90
21123;DHT22;10719;48.130;11.630;2022-11-27T05:49:21;-1.30;99.90
21123;DHT22;10719;48.130;11.630;2022-11-27T05:51:47;-1.30;99.90
21123;DHT22;10719;48.130;11.630;2022-11-27T05:54:12;-1.30;99.90
21123;DHT22;10719;48.130;11.630;2022-11-27T05:56:38;-1.30;99.90
21123;DHT22;10719;48.130;11.630;2022-11-27T05:59:03;-1.30;99.90
21123;DHT22;10719;48.130;11.630;2022-11-27T06:01:29;-1.30;99.90
21123;DHT22;10719;48.130;11.630;2022-11-27T06:03:55;-1.40;99.90
21123;DHT22;10719;48.130;11.630;2022-11-27T06:06:20;-1.30;99.90
21123;DHT22;10719;48.130;11.630;2022-11-27T06:08:46;-1.30;99.90
21123;DHT22;10719;48.130;11.630;2022-11-27T06:11:17;-1.30;99.90
21123;DHT22;10719;48.130;11.630;2022-11-27T06:13:45;-1.40;99.90
21123;DHT22;10719;48.130;11.630;2022-11-27T06:16:17;-1.40;99.90
21123;DHT22;10719;48.130;11.630;2022-11-27T06:18:43;-1.40;99.90
21123;DHT22;10719;48.130;11.630;2022-11-27T06:21:11;-1.40;99.90
21123;DHT22;10719;48.130;11.630;2022-11-27T06:23:37;-1.40;99.90
21123;DHT22;10719;48.130;11.630;2022-11-27T06:28:39;-1.50;99.90
21123;DHT22;10719;48.130;11.630;2022-11-27T06:31:10;-1.50;99.90
21123;DHT22;10719;48.130;11.630;2022-11-27T06:33:36;-1.40;99.90
21123;DHT22;10719;48.130;11.630;2022-11-27T06:36:02;-1.50;99.90
21123;DHT22;10719;48.130;11.630;2022-11-27T06:38:30;-1.40;99.90
21123;DHT22;10719;48.130;11.630;2022-11-27T06:41:01;-1.50;99.90
21123;DHT22;10719;48.130;11.630;2022-11-27T06:43:27;-1.50;99.90
21123;DHT22;10719;48.130;11.630;2022-11-27T06:45:57;-1.50;99.90
21123;DHT22;10719;48.130;11.630;2022-11-27T06:48:22;-1.50;99.90
21123;DHT22;10719;48.130;11.630;2022-11-27T06:50:48;-1.50;99.90
21123;DHT22;10719;48.130;11.630;2022-11-27T06:53:14;-1.50;99.90
21123;DHT22;10719;48.130;11.630;2022-11-27T06:55:39;-1.50;99.90
21123;DHT22;10719;48.130;11.630;2022-11-27T06:58:05;-1.50;99.90
21123;DHT22;10719;48.130;11.630;2022-11-27T07:00:30;-1.50;99.90
21123;DHT22;10719;48.130;11.630;2022-11-27T07:02:56;-1.40;99.90
21123;DHT22;10719;48.130;11.630;2022-11-27T07:05:22;-1.50;99.90
21123;DHT22;10719;48.130;11.630;2022-11-27T07:07:48;-1.50;99.90
21123;DHT22;10719;48.130;11.630;2022-11-27T07:10:14;-1.50;99.90
21123;DHT22;10719;48.130;11.630;2022-11-27T07:12:40;-1.50;99.90
21123;DHT22;10719;48.130;11.630;2022-11-27T07:15:06;-1.60;99.90
21123;DHT22;10719;48.130;11.630;2022-11-27T07:17:32;-1.50;99.90
21123;DHT22;10719;48.130;11.630;2022-11-27T07:19:57;-1.50;99.90
21123;DHT22;10719;48.130;11.630;2022-11-27T07:22:23;-1.40;99.90
21123;DHT22;10719;48.130;11.630;2022-11-27T07:24:48;-1.40;99.90
21123;DHT22;10719;48.130;11.630;2022-11-27T07:27:14;-1.40;99.90
21123;DHT22;10719;48.130;11.630;2022-11-27T07:29:39;-1.40;99.90
21123;DHT22;10719;48.130;11.630;2022-11-27T07:32:05;-1.40;99.90
21123;DHT22;10719;48.130;11.630;2022-11-27T07:34:30;-1.30;99.90
21123;DHT22;10719;48.130;11.630;2022-11-27T07:36:56;-1.30;99.90
21123;DHT22;10719;48.130;11.630;2022-11-27T07:39:22;-1.20;99.90
21123;DHT22;10719;48.130;11.630;2022-11-27T07:41:48;-1.20;99.90
21123;DHT22;10719;48.130;11.630;2022-11-27T07:44:13;-1.10;99.90
21123;DHT22;10719;48.130;11.630;2022-11-27T07:46:39;-1.10;99.90
21123;DHT22;10719;48.130;11.630;2022-11-27T07:49:04;-1.00;99.90
21123;DHT22;10719;48.130;11.630;2022-11-27T07:51:30;-1.00;99.90
21123;DHT22;10719;48.130;11.630;2022-11-27T07:53:56;-1.00;99.90
21123;DHT22;10719;48.130;11.630;2022-11-27T07:56:21;-0.90;99.90
21123;DHT22;10719;48.130;11.630;2022-11-27T07:58:47;-0.90;99.90
21123;DHT22;10719;48.130;11.630;2022-11-27T08:01:16;-0.80;99.90
21123;DHT22;10719;48.130;11.630;2022-11-27T08:03:42;-0.80;99.90
21123;DHT22;10719;48.130;11.630;2022-11-27T08:06:22;-0.70;99.90
21123;DHT22;10719;48.130;11.630;2022-11-27T08:08:49;-0.70;99.90
21123;DHT22;10719;48.130;11.630;2022-11-27T08:11:26;-0.60;99.90
21123;DHT22;10719;48.130;11.630;2022-11-27T08:13:59;-0.60;99.90
21123;DHT22;10719;48.130;11.630;2022-11-27T08:16:26;-0.50;99.90
21123;DHT22;10719;48.130;11.630;2022-11-27T08:18:52;-0.50;99.90
21123;DHT22;10719;48.130;11.630;2022-11-27T08:21:18;-0.40;99.90
21123;DHT22;10719;48.130;11.630;2022-11-27T08:23:45;-0.40;99.90
21123;DHT22;10719;48.130;11.630;2022-11-27T08:26:11;-0.30;99.90
21123;DHT22;10719;48.130;11.630;2022-11-27T08:28:37;-0.20;99.90
21123;DHT22;10719;48.130;11.630;2022-11-27T08:31:04;-0.20;99.90
21123;DHT22;10719;48.130;11.630;2022-11-27T08:33:31;-0.10;99.90
21123;DHT22;10719;48.130;11.630;2022-11-27T08:35:56;0.00;99.90
21123;DHT22;10719;48.130;11.630;2022-11-27T08:38:23;0.10;99.90
21123;DHT22;10719;48.130;11.630;2022-11-27T08:40:56;0.10;99.90
21123;DHT22;10719;48.130;11.630;2022-11-27T08:43:22;0.10;99.90
21123;DHT22;10719;48.130;11.630;2022-11-27T08:45:48;0.20;99.90
21123;DHT22;10719;48.130;11.630;2022-11-27T08:48:14;0.20;99.90
21123;DHT22;10719;48.130;11.630;2022-11-27T08:50:40;0.30;99.90
21123;DHT22;10719;48.130;11.630;2022-11-27T08:53:05;0.30;99.90
21123;DHT22;10719;48.130;11.630;2022-11-27T08:55:31;0.40;99.90
21123;DHT22;10719;48.130;11.630;2022-11-27T08:57:56;0.40;99.90
21123;DHT22;10719;48.130;11.630;2022-11-27T09:00:22;0.50;99.90
21123;DHT22;10719;48.130;11.630;2022-11-27T09:02:47;0.50;99.90
21123;DHT22;10719;48.130;11.630;2022-11-27T09:05:13;0.60;99.90
21123;DHT22;10719;48.130;11.630;2022-11-27T09:07:38;0.60;99.90
21123;DHT22;10719;48.130;11.630;2022-11-27T09:10:06;0.60;99.90
21123;DHT22;10719;48.130;11.630;2022-11-27T09:12:32;0.70;99.90
21123;DHT22;10719;48.130;11.630;2022-11-27T09:14:58;0.80;99.90
21123;DHT22;10719;48.130;11.630;2022-11-27T09:17:23;0.80;99.90
21123;DHT22;10719;48.130;11.630;2022-11-27T09:19:49;0.80;99.90
21123;DHT22;10719;48.130;11.630;2022-11-27T09:22:15;0.90;99.90
21123;DHT22;10719;48.130;11.630;2022-11-27T09:24:41;1.00;99.90
21123;DHT22;10719;48.130;11.630;2022-11-27T09:27:06;1.10;99.90
21123;DHT22;10719;48.130;11.630;2022-11-27T09:29:33;1.10;99.90
21123;DHT22;10719;48.130;11.630;2022-11-27T09:31:59;1.20;99.90
21123;DHT22;10719;48.130;11.630;2022-11-27T09:34:25;1.20;99.90
21123;DHT22;10719;48.130;11.630;2022-11-27T09:36:51;1.30;99.90
21123;DHT22;10719;48.130;11.630;2022-11-27T09:39:17;1.30;99.90
21123;DHT22;10719;48.130;11.630;2022-11-27T09:41:56;1.40;99.90
21123;DHT22;10719;48.130;11.630;2022-11-27T09:46:55;1.60;99.90
21123;DHT22;10719;48.130;11.630;2022-11-27T09:49:28;1.60;99.90
21123;DHT22;10719;48.130;11.630;2022-11-27T09:51:57;1.70;99.90
21123;DHT22;10719;48.130;11.630;2022-11-27T09:54:25;1.70;99.90
21123;DHT22;10719;48.130;11.630;2022-11-27T09:56:54;1.80;99.90
21123;DHT22;10719;48.130;11.630;2022-11-27T09:59:24;1.90;99.90
21123;DHT22;10719;48.130;11.630;2022-11-27T10:01:52;1.90;99.90
21123;DHT22;10719;48.130;11.630;2022-11-27T10:04:19;2.10;99.90
21123;DHT22;10719;48.130;11.630;2022-11-27T10:07:25;2.10;99.90
21123;DHT22;10719;48.130;11.630;2022-11-27T10:12:24;2.40;99.90
21123;DHT22;10719;48.130;11.630;2022-11-27T10:15:04;2.50;99.90
21123;DHT22;10719;48.130;11.630;2022-11-27T10:17:42;2.50;99.90
21123;DHT22;10719;48.130;11.630;2022-11-27T10:20:31;2.50;99.90
21123;DHT22;10719;48.130;11.630;2022-11-27T10:33:55;3.00;99.90
21123;DHT22;10719;48.130;11.630;2022-11-27T10:36:29;3.10;99.90
21123;DHT22;10719;48.130;11.630;2022-11-27T10:38:56;3.10;99.90
21123;DHT22;10719;48.130;11.630;2022-11-27T10:41:33;3.20;99.90
21123;DHT22;10719;48.130;11.630;2022-11-27T10:44:17;3.20;99.90
21123;DHT22;10719;48.130;11.630;2022-11-27T10:46:48;3.20;99.90
21123;DHT22;10719;48.130;11.630;2022-11-27T10:49:14;3.30;99.90
21123;DHT22;10719;48.130;11.630;2022-11-27T10:51:40;3.30;99.90
21123;DHT22;10719;48.130;11.630;2022-11-27T10:54:16;3.20;99.90
21123;DHT22;10719;48.130;11.630;2022-11-27T10:57:04;3.30;99.90
21123;DHT22;10719;48.130;11.630;2022-11-27T10:59:36;3.30;99.90
21123;DHT22;10719;48.130;11.630;2022-11-27T11:02:04;3.40;99.90
21123;DHT22;10719;48.130;11.630;2022-11-27T11:04:32;3.30;99.90
21123;DHT22;10719;48.130;11.630;2022-11-27T11:06:57;3.40;99.90
21123;DHT22;10719;48.130;11.630;2022-11-27T11:09:29;3.50;99.90
21123;DHT22;10719;48.130;11.630;2022-11-27T11:12:15;3.50;99.90
21123;DHT22;10719;48.130;11.630;2022-11-27T11:14:56;3.50;99.90
21123;DHT22;10719;48.130;11.630;2022-11-27T11:17:31;3.60;99.90
21123;DHT22;10719;48.130;11.630;2022-11-27T11:20:13;3.70;99.90
21123;DHT22;10719;48.130;11.630;2022-11-27T11:22:45;3.70;99.90
21123;DHT22;10719;48.130;11.630;2022-11-27T11:25:17;3.70;99.90
21123;DHT22;10719;48.130;11.630;2022-11-27T11:27:44;3.70;99.90
21123;DHT22;10719;48.130;11.630;2022-11-27T11:30:25;3.70;99.90
21123;DHT22;10719;48.130;11.630;2022-11-27T11:32:59;3.70;99.90
21123;DHT22;10719;48.130;11.630;2022-11-27T11:35:32;3.70;99.90
21123;DHT22;10719;48.130;11.630;2022-11-27T11:38:03;3.70;99.90
21123;DHT22;10719;48.130;11.630;2022-11-27T11:40:34;3.70;99.90
21123;DHT22;10719;48.130;11.630;2022-11-27T11:43:06;3.60;99.90
21123;DHT22;10719;48.130;11.630;2022-11-27T11:45:46;3.40;99.90
21123;DHT22;10719;48.130;11.630;2022-11-27T11:48:21;3.30;99.90
21123;DHT22;10719;48.130;11.630;2022-11-27T11:50:59;3.10;99.90
21123;DHT22;10719;48.130;11.630;2022-11-27T11:53:38;3.10;99.90
21123;DHT22;10719;48.130;11.630;2022-11-27T11:56:27;3.10;99.90
21123;DHT22;10719;48.130;11.630;2022-11-27T11:58:56;3.00;99.90
21123;DHT22;10719;48.130;11.630;2022-11-27T12:06:41;3.10;99.90
21123;DHT22;10719;48.130;11.630;2022-11-27T12:09:23;3.40;99.90
21123;DHT22;10719;48.130;11.630;2022-11-27T12:11:58;3.80;99.90
21123;DHT22;10719;48.130;11.630;2022-11-27T12:14:33;3.80;99.90
21123;DHT22;10719;48.130;11.630;2022-11-27T12:17:56;4.00;99.90
21123;DHT22;10719;48.130;11.630;2022-11-27T12:20:23;4.20;99.90
21123;DHT22;10719;48.130;11.630;2022-11-27T12:34:12;3.30;99.90
21123;DHT22;10719;48.130;11.630;2022-11-27T12:37:15;3.20;99.90
21123;DHT22;10719;48.130;11.630;2022-11-27T12:42:30;3.00;99.90
21123;DHT22;10719;48.130;11.630;2022-11-27T12:45:18;3.00;99.90
21123;DHT22;10719;48.130;11.630;2022-11-27T12:53:15;2.80;99.90
21123;DHT22;10719;48.130;11.630;2022-11-27T12:55:49;2.80;99.90
21123;DHT22;10719;48.130;11.630;2022-11-27T12:58:25;2.70;99.90
21123;DHT22;10719;48.130;11.630;2022-11-27T13:00:59;2.60;99.90
21123;DHT22;10719;48.130;11.630;2022-11-27T13:03:35;2.60;99.90
21123;DHT22;10719;48.130;11.630;2022-11-27T13:06:07;2.50;99.90
21123;DHT22;10719;48.130;11.630;2022-11-27T13:11:07;2.30;99.90
21123;DHT22;10719;48.130;11.630;2022-11-27T13:13:42;2.50;99.90
21123;DHT22;10719;48.130;11.630;2022-11-27T13:21:22;2.60;99.90
21123;DHT22;10719;48.130;11.630;2022-11-27T13:23:49;2.70;99.90
21123;DHT22;10719;48.130;11.630;2022-11-27T13:29:12;2.70;99.90
21123;DHT22;10719;48.130;11.630;2022-11-27T13:31:42;2.50;99.90
21123;DHT22;10719;48.130;11.630;2022-11-27T13:34:17;2.70;99.90
21123;DHT22;10719;48.130;11.630;2022-11-27T13:36:46;2.70;99.90
21123;DHT22;10719;48.130;11.630;2022-11-27T13:39:34;2.50;99.90
21123;DHT22;10719;48.130;11.630;2022-11-27T13:44:42;2.60;99.90
21123;DHT22;10719;48.130;11.630;2022-11-27T13:47:13;2.60;99.90
21123;DHT22;10719;48.130;11.630;2022-11-27T13:49:40;2.60;99.90
21123;DHT22;10719;48.130;11.630;2022-11-27T13:52:16;2.60;99.90
21123;DHT22;10719;48.130;11.630;2022-11-27T13:54:57;2.50;99.90
21123;DHT22;10719;48.130;11.630;2022-11-27T13:57:23;2.70;99.90
21123;DHT22;10719;48.130;11.630;2022-11-27T14:02:44;2.80;99.90
21123;DHT22;10719;48.130;11.630;2022-11-27T14:05:12;2.80;99.90
21123;DHT22;10719;48.130;11.630;2022-11-27T14:07:43;2.60;99.90
21123;DHT22;10719;48.130;11.630;2022-11-27T14:10:19;2.50;99.90
21123;DHT22;10719;48.130;11.630;2022-11-27T14:13:04;2.70;99.90
21123;DHT22;10719;48.130;11.630;2022-11-27T14:15:32;2.60;99.90
21123;DHT22;10719;48.130;11.630;2022-11-27T14:18:21;2.70;99.90
21123;DHT22;10719;48.130;11.630;2022-11-27T14:20:52;2.80;99.90
21123;DHT22;10719;48.130;11.630;2022-11-27T14:23:31;2.80;99.90
21123;DHT22;10719;48.130;11.630;2022-11-27T14:28:37;2.60;99.90
21123;DHT22;10719;48.130;11.630;2022-11-27T14:31:04;2.60;99.90
21123;DHT22;10719;48.130;11.630;2022-11-27T14:33:34;2.60;99.90
21123;DHT22;10719;48.130;11.630;2022-11-27T14:36:02;2.50;99.90
21123;DHT22;10719;48.130;11.630;2022-11-27T14:38:29;2.60;99.90
21123;DHT22;10719;48.130;11.630;2022-11-27T14:41:17;2.50;99.90
21123;DHT22;10719;48.130;11.630;2022-11-27T14:43:43;2.50;99.90
21123;DHT22;10719;48.130;11.630;2022-11-27T14:46:15;2.40;99.90
21123;DHT22;10719;48.130;11.630;2022-11-27T14:48:52;2.40;99.90
21123;DHT22;10719;48.130;11.630;2022-11-27T14:51:29;2.30;99.90
21123;DHT22;10719;48.130;11.630;2022-11-27T14:54:04;2.30;99.90
21123;DHT22;10719;48.130;11.630;2022-11-27T14:56:34;2.10;99.90
21123;DHT22;10719;48.130;11.630;2022-11-27T14:59:00;2.00;99.90
21123;DHT22;10719;48.130;11.630;2022-11-27T15:01:27;1.90;99.90
21123;DHT22;10719;48.130;11.630;2022-11-27T15:04:25;1.90;99.90
21123;DHT22;10719;48.130;11.630;2022-11-27T15:06:51;1.70;99.90
21123;DHT22;10719;48.130;11.630;2022-11-27T15:09:19;1.70;99.90
21123;DHT22;10719;48.130;11.630;2022-11-27T15:12:35;1.70;99.90
21123;DHT22;10719;48.130;11.630;2022-11-27T15:14:35;1.70;99.90
21123;DHT22;10719;48.130;11.630;2022-11-27T15:17:01;1.60;99.90
21123;DHT22;10719;48.130;11.630;2022-11-27T15:19:32;1.60;99.90
21123;DHT22;10719;48.130;11.630;2022-11-27T15:21:58;1.60;99.90
21123;DHT22;10719;48.130;11.630;2022-11-27T15:24:35;1.50;99.90
21123;DHT22;10719;48.130;11.630;2022-11-27T15:29:41;1.40;99.90
21123;DHT22;10719;48.130;11.630;2022-11-27T15:32:22;1.30;99.90
21123;DHT22;10719;48.130;11.630;2022-11-27T15:34:49;1.30;99.90
21123;DHT22;10719;48.130;11.630;2022-11-27T15:37:22;1.30;99.90
21123;DHT22;10719;48.130;11.630;2022-11-27T15:39:50;1.20;99.90
21123;DHT22;10719;48.130;11.630;2022-11-27T15:42:17;1.20;99.90
21123;DHT22;10719;48.130;11.630;2022-11-27T15:44:44;1.20;99.90
21123;DHT22;10719;48.130;11.630;2022-11-27T15:49:53;1.20;99.90
21123;DHT22;10719;48.130;11.630;2022-11-27T15:52:18;1.30;99.90
21123;DHT22;10719;48.130;11.630;2022-11-27T15:54:44;1.20;99.90
21123;DHT22;10719;48.130;11.630;2022-11-27T15:57:10;1.10;99.90
21123;DHT22;10719;48.130;11.630;2022-11-27T15:59:37;1.00;99.90
21123;DHT22;10719;48.130;11.630;2022-11-27T16:02:03;1.10;99.90
21123;DHT22;10719;48.130;11.630;2022-11-27T16:04:29;1.10;99.90
21123;DHT22;10719;48.130;11.630;2022-11-27T16:06:55;1.20;99.90
21123;DHT22;10719;48.130;11.630;2022-11-27T16:09:21;1.10;99.90
21123;DHT22;10719;48.130;11.630;2022-11-27T16:11:46;1.00;99.90
21123;DHT22;10719;48.130;11.630;2022-11-27T16:14:12;1.00;99.90
21123;DHT22;10719;48.130;11.630;2022-11-27T16:16:38;1.00;99.90
21123;DHT22;10719;48.130;11.630;2022-11-27T16:19:04;0.90;99.90
21123;DHT22;10719;48.130;11.630;2022-11-27T16:21:31;0.70;99.90
21123;DHT22;10719;48.130;11.630;2022-11-27T16:23:59;0.80;99.90
21123;DHT22;10719;48.130;11.630;2022-11-27T16:26:25;0.80;99.90
21123;DHT22;10719;48.130;11.630;2022-11-27T16:28:51;0.80;99.90
21123;DHT22;10719;48.130;11.630;2022-11-27T16:31:17;0.90;99.90
21123;DHT22;10719;48.130;11.630;2022-11-27T16:33:43;0.70;99.90
21123;DHT22;10719;48.130;11.630;2022-11-27T16:36:10;0.80;99.90
21123;DHT22;10719;48.130;11.630;2022-11-27T16:38:37;0.60;99.90
21123;DHT22;10719;48.130;11.630;2022-11-27T16:41:05;0.60;99.90
21123;DHT22;10719;48.130;11.630;2022-11-27T16:43:35;0.60;99.90
21123;DHT22;10719;48.130;11.630;2022-11-27T16:46:07;0.70;99.90
21123;DHT22;10719;48.130;11.630;2022-11-27T16:48:34;0.70;99.90
21123;DHT22;10719;48.130;11.630;2022-11-27T16:51:09;0.80;99.90
21123;DHT22;10719;48.130;11.630;2022-11-27T16:53:39;0.70;99.90
21123;DHT22;10719;48.130;11.630;2022-11-27T16:56:07;0.80;99.90
21123;DHT22;10719;48.130;11.630;2022-11-27T16:58:34;0.90;99.90
21123;DHT22;10719;48.130;11.630;2022-11-27T17:01:02;0.70;99.90
21123;DHT22;10719;48.130;11.630;2022-11-27T17:03:28;0.80;99.90
21123;DHT22;10719;48.130;11.630;2022-11-27T17:05:53;0.70;99.90
21123;DHT22;10719;48.130;11.630;2022-11-27T17:08:19;0.70;99.90
21123;DHT22;10719;48.130;11.630;2022-11-27T17:10:45;0.60;99.90
21123;DHT22;10719;48.130;11.630;2022-11-27T17:13:10;0.60;99.90
21123;DHT22;10719;48.130;11.630;2022-11-27T17:15:36;0.50;99.90